createdAt,value
2023-06-30T00:00:33.560Z,94611.38
2023-06-30T00:03:01.488Z,94615.72
2023-06-30T00:05:29.321Z,94614.41
2023-06-30T00:07:59.768Z,94603.09
2023-06-30T00:10:28.907Z,94600.59
2023-06-30T00:12:56.573Z,94605.31
2023-06-30T00:15:24.228Z,94599.28
2023-06-30T00:17:53.909Z,94599.47
2023-06-30T00:20:22.483Z,94597.84
2023-06-30T00:22:50.258Z,94588.69
2023-06-30T00:25:17.961Z,94578.19
2023-06-30T00:27:46.957Z,94575.22
2023-06-30T00:30:15.420Z,94578.19
2023-06-30T00:32:43.070Z,94586.06
2023-06-30T00:35:10.883Z,94587.34
2023-06-30T00:37:38.735Z,94591.44
2023-06-30T00:40:07.326Z,94587.22
2023-06-30T00:42:34.977Z,94582.53
2023-06-30T00:45:04.130Z,94579.25
2023-06-30T00:47:32.144Z,94581.03
2023-06-30T00:49:59.872Z,94569.75
2023-06-30T00:52:27.646Z,94573.84
2023-06-30T00:54:55.348Z,94570.56
2023-06-30T00:57:22.980Z,94563.53
2023-06-30T00:59:50.628Z,94566.94
2023-06-30T01:02:23.337Z,94574.84
2023-06-30T01:04:55.251Z,94558.25
2023-06-30T01:07:27.006Z,94553.56
2023-06-30T01:09:59.197Z,94551.44
2023-06-30T01:12:27.239Z,94554.00
2023-06-30T01:14:55.642Z,94547.66
2023-06-30T01:17:25.914Z,94545.34
2023-06-30T01:19:56.613Z,94553.44
2023-06-30T01:22:26.793Z,94549.72
2023-06-30T01:24:58.990Z,94547.59
2023-06-30T01:27:26.459Z,94548.28
2023-06-30T01:29:55.319Z,94548.41
2023-06-30T01:32:24.696Z,94548.94
2023-06-30T01:34:52.681Z,94548.59
2023-06-30T01:37:20.341Z,94546.84
2023-06-30T01:39:48.024Z,94544.41
2023-06-30T01:42:15.823Z,94547.66
2023-06-30T01:44:43.800Z,94543.06
2023-06-30T01:47:11.969Z,94541.47
2023-06-30T01:49:41.070Z,94535.13
2023-06-30T01:52:08.887Z,94532.03
2023-06-30T01:54:36.609Z,94528.94
2023-06-30T01:57:04.612Z,94528.47
2023-06-30T01:59:32.253Z,94522.25
2023-06-30T02:02:00.022Z,94520.63
2023-06-30T02:04:27.768Z,94524.63
2023-06-30T02:06:57.077Z,94527.38
2023-06-30T02:09:34.471Z,94529.16
2023-06-30T02:12:11.201Z,94525.88
2023-06-30T02:14:38.838Z,94527.50
2023-06-30T02:17:07.789Z,94518.09
2023-06-30T02:19:35.462Z,94520.56
2023-06-30T02:22:04.788Z,94517.28
2023-06-30T02:24:32.426Z,94519.75
2023-06-30T02:27:00.060Z,94517.59
2023-06-30T02:29:27.701Z,94525.41
2023-06-30T02:31:55.433Z,94522.63
2023-06-30T02:34:23.168Z,94533.69
2023-06-30T02:36:50.867Z,94527.31
2023-06-30T02:39:19.865Z,94525.88
2023-06-30T02:41:47.467Z,94520.38
2023-06-30T02:44:15.115Z,94523.44
2023-06-30T02:46:42.738Z,94526.19
2023-06-30T02:49:10.380Z,94529.75
2023-06-30T02:51:38.180Z,94531.09
2023-06-30T02:54:06.063Z,94526.88
2023-06-30T02:56:35.038Z,94530.78
2023-06-30T02:59:02.860Z,94527.50
2023-06-30T03:01:30.590Z,94514.00
2023-06-30T03:03:58.333Z,94514.84
2023-06-30T03:06:26.056Z,94508.75
2023-06-30T03:08:53.701Z,94511.81
2023-06-30T03:11:21.309Z,94518.78
2023-06-30T03:13:50.609Z,94512.47
2023-06-30T03:16:18.282Z,94518.78
2023-06-30T03:18:45.955Z,94519.91
2023-06-30T03:21:13.580Z,94517.25
2023-06-30T03:23:41.611Z,94520.81
2023-06-30T03:26:09.298Z,94519.22
2023-06-30T03:28:37.774Z,94521.34
2023-06-30T03:31:06.815Z,94513.69
2023-06-30T03:33:34.561Z,94513.09
2023-06-30T03:36:02.202Z,94511.56
2023-06-30T03:38:29.836Z,94514.44
2023-06-30T03:40:57.505Z,94511.69
2023-06-30T03:43:25.231Z,94513.63
2023-06-30T03:45:52.869Z,94519.75
2023-06-30T03:48:22.682Z,94525.72
2023-06-30T03:50:50.615Z,94524.66
2023-06-30T03:53:18.267Z,94517.81
2023-06-30T03:55:46.281Z,94512.31
2023-06-30T03:58:14.089Z,94512.53
2023-06-30T04:00:41.722Z,94509.28
2023-06-30T04:03:09.871Z,94498.25
2023-06-30T04:05:38.997Z,94508.47
2023-06-30T04:08:06.816Z,94498.06
2023-06-30T04:10:34.782Z,94489.97
2023-06-30T04:13:02.434Z,94495.81
2023-06-30T04:15:30.031Z,94488.69
2023-06-30T04:17:57.744Z,94484.38
2023-06-30T04:20:25.384Z,94481.81
2023-06-30T04:22:54.395Z,94486.72
2023-06-30T04:25:22.236Z,94482.22
2023-06-30T04:27:49.853Z,94482.09
2023-06-30T04:30:17.476Z,94474.78
2023-06-30T04:32:45.209Z,94475.19
2023-06-30T04:35:12.848Z,94477.00
2023-06-30T04:37:42.233Z,94479.97
2023-06-30T04:40:11.752Z,94476.88
2023-06-30T04:42:39.901Z,94476.59
2023-06-30T04:45:08.617Z,94461.06
2023-06-30T04:47:36.322Z,94467.06
2023-06-30T04:50:05.308Z,94468.19
2023-06-30T04:52:33.011Z,94462.69
2023-06-30T04:55:00.614Z,94469.34
2023-06-30T04:57:29.614Z,94464.94
2023-06-30T04:59:58.034Z,94463.81
2023-06-30T05:02:25.701Z,94458.81
2023-06-30T05:04:53.370Z,94459.31
2023-06-30T05:07:21.568Z,94462.06
2023-06-30T05:09:49.295Z,94462.50
2023-06-30T05:12:17.123Z,94460.03
2023-06-30T05:14:46.118Z,94468.13
2023-06-30T05:17:14.121Z,94471.72
2023-06-30T05:19:41.833Z,94468.44
2023-06-30T05:22:09.522Z,94467.63
2023-06-30T05:24:37.130Z,94467.94
2023-06-30T05:27:05.247Z,94465.16
2023-06-30T05:29:33.299Z,94465.16
2023-06-30T05:32:02.373Z,94464.06
2023-06-30T05:34:30.118Z,94473.63
2023-06-30T05:36:58.001Z,94467.50
2023-06-30T05:39:25.651Z,94467.38
2023-06-30T05:41:53.277Z,94469.03
2023-06-30T05:44:20.938Z,94477.00
2023-06-30T05:46:48.627Z,94481.06
2023-06-30T05:49:17.642Z,94483.50
2023-06-30T05:51:45.325Z,94486.75
2023-06-30T05:54:13.795Z,94475.34
2023-06-30T05:56:41.486Z,94476.81
2023-06-30T05:59:11.442Z,94477.59
2023-06-30T06:01:39.642Z,94484.75
2023-06-30T06:04:10.690Z,94488.63
2023-06-30T06:06:40.013Z,94490.78
2023-06-30T06:09:07.873Z,94496.31
2023-06-30T06:11:35.580Z,94499.56
2023-06-30T06:14:03.197Z,94503.63
2023-06-30T06:16:30.840Z,94502.94
2023-06-30T06:18:58.525Z,94502.63
2023-06-30T06:21:27.508Z,94506.72
2023-06-30T06:23:56.564Z,94507.81
2023-06-30T06:26:24.225Z,94501.81
2023-06-30T06:28:52.457Z,94517.22
2023-06-30T06:31:20.304Z,94515.59
2023-06-30T06:33:47.999Z,94519.97
2023-06-30T06:36:15.629Z,94516.91
2023-06-30T06:38:43.313Z,94516.59
2023-06-30T06:41:12.280Z,94520.81
2023-06-30T06:43:39.901Z,94521.72
2023-06-30T06:46:07.705Z,94515.81
2023-06-30T06:48:35.347Z,94526.44
2023-06-30T06:51:04.458Z,94521.13
2023-06-30T06:53:34.010Z,94512.03
2023-06-30T06:56:02.952Z,94513.38
2023-06-30T06:58:33.206Z,94517.13
2023-06-30T07:01:01.144Z,94521.41
2023-06-30T07:03:29.903Z,94517.75
2023-06-30T07:05:58.121Z,94521.00
2023-06-30T07:08:26.082Z,94521.50
2023-06-30T07:10:53.771Z,94521.50
2023-06-30T07:13:22.676Z,94520.09
2023-06-30T07:15:51.989Z,94522.13
2023-06-30T07:18:21.037Z,94524.56
2023-06-30T07:20:49.180Z,94509.84
2023-06-30T07:23:16.963Z,94510.66
2023-06-30T07:25:45.301Z,94510.47
2023-06-30T07:28:13.724Z,94512.63
2023-06-30T07:30:45.226Z,94512.13
2023-06-30T07:33:14.536Z,94510.84
2023-06-30T07:35:42.458Z,94511.91
2023-06-30T07:38:10.700Z,94514.06
2023-06-30T07:40:53.731Z,94514.44
2023-06-30T07:43:23.240Z,94514.63
2023-06-30T07:45:50.933Z,94506.72
2023-06-30T07:48:20.183Z,94516.84
2023-06-30T07:51:03.414Z,94518.34
2023-06-30T07:53:35.741Z,94521.00
2023-06-30T07:56:03.413Z,94529.34
2023-06-30T07:58:31.036Z,94534.41
2023-06-30T08:00:58.669Z,94535.31
2023-06-30T08:03:27.805Z,94535.19
2023-06-30T08:05:56.577Z,94536.66
2023-06-30T08:08:25.214Z,94535.41
2023-06-30T08:10:52.883Z,94532.66
2023-06-30T08:13:20.524Z,94530.81
2023-06-30T08:15:49.498Z,94529.53
2023-06-30T08:18:32.474Z,94529.03
2023-06-30T08:21:03.864Z,94529.22
2023-06-30T08:23:31.749Z,94537.22
2023-06-30T08:25:59.445Z,94540.06
2023-06-30T08:28:27.119Z,94534.56
2023-06-30T08:30:55.050Z,94545.16
2023-06-30T08:33:39.934Z,94539.50
2023-06-30T08:36:10.408Z,94540.84
2023-06-30T08:38:38.084Z,94535.19
2023-06-30T08:41:05.852Z,94537.50
2023-06-30T08:43:34.055Z,94541.31
2023-06-30T08:46:03.483Z,94541.50
2023-06-30T08:48:32.332Z,94547.72
2023-06-30T08:51:01.131Z,94541.84
2023-06-30T08:53:31.811Z,94537.72
2023-06-30T08:56:01.005Z,94544.03
2023-06-30T08:58:29.158Z,94551.22
2023-06-30T09:00:57.591Z,94550.13
2023-06-30T09:03:26.014Z,94550.66
2023-06-30T09:05:56.589Z,94544.13
2023-06-30T09:08:25.491Z,94547.91
2023-06-30T09:10:56.190Z,94550.19
2023-06-30T09:13:25.662Z,94545.63
2023-06-30T09:15:56.748Z,94540.06
2023-06-30T09:18:24.486Z,94536.50
2023-06-30T09:20:52.166Z,94538.78
2023-06-30T09:23:19.800Z,94535.69
2023-06-30T09:25:48.338Z,94538.63
2023-06-30T09:28:17.751Z,94543.66
2023-06-30T09:30:47.014Z,94533.41
2023-06-30T09:33:16.025Z,94536.03
2023-06-30T09:35:45.231Z,94540.72
2023-06-30T09:38:13.729Z,94544.47
2023-06-30T09:40:44.403Z,94541.34
2023-06-30T09:43:19.261Z,94553.72
2023-06-30T09:45:48.965Z,94556.28
2023-06-30T09:48:17.174Z,94558.50
2023-06-30T09:50:44.862Z,94553.13
2023-06-30T09:53:12.619Z,94562.03
2023-06-30T09:55:50.650Z,94571.91
2023-06-30T09:58:21.523Z,94566.00
2023-06-30T10:00:52.575Z,94564.13
2023-06-30T10:03:20.458Z,94580.41
2023-06-30T10:05:50.530Z,94577.94
2023-06-30T10:08:18.655Z,94568.06
2023-06-30T10:10:46.378Z,94559.97
2023-06-30T10:13:17.012Z,94559.44
2023-06-30T10:15:46.753Z,94553.44
2023-06-30T10:18:16.299Z,94539.22
2023-06-30T10:20:49.087Z,94538.47
2023-06-30T10:23:19.021Z,94526.31
2023-06-30T10:25:47.154Z,94525.22
2023-06-30T10:28:16.064Z,94519.56
2023-06-30T10:30:44.350Z,94517.38
2023-06-30T10:33:14.046Z,94525.22
2023-06-30T10:35:42.422Z,94522.41
2023-06-30T10:38:12.652Z,94526.25
2023-06-30T10:40:40.379Z,94525.31
2023-06-30T10:43:08.293Z,94518.59
2023-06-30T10:45:36.856Z,94519.00
2023-06-30T10:48:10.412Z,94523.13
2023-06-30T10:50:43.532Z,94513.09
2023-06-30T10:53:18.474Z,94508.28
2023-06-30T10:55:47.016Z,94510.56
2023-06-30T10:58:23.828Z,94517.06
2023-06-30T11:01:04.539Z,94512.44
2023-06-30T11:04:07.522Z,94517.34
2023-06-30T11:06:37.512Z,94509.59
2023-06-30T11:09:12.559Z,94510.81
2023-06-30T11:11:50.025Z,94507.03
2023-06-30T11:14:31.829Z,94502.97
2023-06-30T11:17:04.300Z,94511.28
2023-06-30T11:19:32.063Z,94509.03
2023-06-30T11:22:26.450Z,94505.19
2023-06-30T11:24:54.493Z,94492.97
2023-06-30T11:27:22.717Z,94485.38
2023-06-30T11:29:51.346Z,94484.06
2023-06-30T11:32:19.843Z,94484.88
2023-06-30T11:34:47.895Z,94477.72
2023-06-30T11:37:15.548Z,94477.38
2023-06-30T11:39:51.639Z,94475.94
2023-06-30T11:42:19.536Z,94474.28
2023-06-30T11:44:47.207Z,94469.56
2023-06-30T11:47:15.482Z,94464.38
2023-06-30T11:49:43.322Z,94463.53
2023-06-30T11:52:11.356Z,94475.06
2023-06-30T11:54:39.040Z,94481.28
2023-06-30T11:57:08.228Z,94482.22
2023-06-30T11:59:36.125Z,94472.16
2023-06-30T12:02:05.626Z,94477.41
2023-06-30T12:04:35.431Z,94469.25
2023-06-30T12:07:04.437Z,94464.84
2023-06-30T12:09:32.222Z,94460.53
2023-06-30T12:12:01.435Z,94460.69
2023-06-30T12:14:30.613Z,94458.84
2023-06-30T12:16:58.356Z,94465.63
2023-06-30T12:19:26.823Z,94464.28
2023-06-30T12:21:55.948Z,94455.59
2023-06-30T12:24:23.902Z,94464.97
2023-06-30T12:26:52.732Z,94459.94
2023-06-30T12:29:20.865Z,94461.44
2023-06-30T12:31:50.181Z,94456.34
2023-06-30T12:34:32.695Z,94447.63
2023-06-30T12:37:00.488Z,94443.00
2023-06-30T12:39:28.356Z,94441.94
2023-06-30T12:41:56.123Z,94436.81
2023-06-30T12:44:24.081Z,94441.69
2023-06-30T12:47:01.666Z,94430.63
2023-06-30T12:49:30.009Z,94432.94
2023-06-30T12:51:57.779Z,94419.47
2023-06-30T12:54:25.783Z,94419.06
2023-06-30T12:56:54.814Z,94422.66
2023-06-30T12:59:22.672Z,94421.06
2023-06-30T13:01:50.379Z,94419.34
2023-06-30T13:04:19.393Z,94423.84
2023-06-30T13:06:47.058Z,94409.50
2023-06-30T13:09:15.022Z,94410.00
2023-06-30T13:11:43.150Z,94414.59
2023-06-30T13:14:10.865Z,94413.69
2023-06-30T13:16:38.581Z,94413.06
2023-06-30T13:19:06.334Z,94417.91
2023-06-30T13:21:35.316Z,94428.28
2023-06-30T13:24:03.000Z,94410.19
2023-06-30T13:26:30.645Z,94424.72
2023-06-30T13:28:58.280Z,94419.34
2023-06-30T13:31:25.918Z,94416.94
2023-06-30T13:33:53.640Z,94411.19
2023-06-30T13:36:21.260Z,94410.25
2023-06-30T13:38:50.256Z,94409.69
2023-06-30T13:41:18.076Z,94405.50
2023-06-30T13:43:45.725Z,94406.69
2023-06-30T13:46:13.475Z,94404.75
2023-06-30T13:48:41.667Z,94407.59
2023-06-30T13:51:09.340Z,94410.41
2023-06-30T13:53:40.021Z,94408.56
2023-06-30T13:56:08.990Z,94406.03
2023-06-30T13:58:36.643Z,94402.41
2023-06-30T14:01:04.309Z,94405.06
2023-06-30T14:03:32.012Z,94407.63
2023-06-30T14:05:59.836Z,94401.56
2023-06-30T14:08:27.618Z,94402.13
2023-06-30T14:10:56.497Z,94397.25
2023-06-30T14:13:28.491Z,94401.28
2023-06-30T14:15:56.172Z,94403.38
2023-06-30T14:18:23.865Z,94398.19
2023-06-30T14:20:51.483Z,94399.53
2023-06-30T14:23:19.126Z,94397.19
2023-06-30T14:25:47.123Z,94394.38
2023-06-30T14:28:15.056Z,94385.47
2023-06-30T14:30:44.310Z,94384.13
2023-06-30T14:33:12.019Z,94387.38
2023-06-30T14:35:39.675Z,94391.97
2023-06-30T14:38:07.746Z,94391.28
2023-06-30T14:40:35.713Z,94391.59
2023-06-30T14:43:03.456Z,94378.66
2023-06-30T14:45:31.420Z,94379.22
2023-06-30T14:48:00.499Z,94380.50
2023-06-30T14:50:28.296Z,94378.16
2023-06-30T14:52:55.991Z,94386.06
2023-06-30T14:55:23.943Z,94379.03
2023-06-30T14:57:51.996Z,94374.69
2023-06-30T15:00:21.047Z,94375.16
2023-06-30T15:02:49.402Z,94377.31
2023-06-30T15:05:18.527Z,94380.72
2023-06-30T15:07:47.716Z,94380.31
2023-06-30T15:10:15.829Z,94376.66
2023-06-30T15:12:43.487Z,94369.91
2023-06-30T15:15:11.646Z,94366.91
2023-06-30T15:17:39.352Z,94370.22
2023-06-30T15:20:08.438Z,94368.34
2023-06-30T15:22:37.590Z,94365.66
2023-06-30T15:25:05.761Z,94358.03
2023-06-30T15:27:35.625Z,94360.56
2023-06-30T15:30:07.072Z,94362.78
2023-06-30T15:32:34.879Z,94362.91
2023-06-30T15:35:02.566Z,94364.09
2023-06-30T15:37:30.245Z,94367.19
2023-06-30T15:39:59.216Z,94361.38
2023-06-30T15:42:26.904Z,94362.44
2023-06-30T15:44:54.572Z,94356.22
2023-06-30T15:47:22.247Z,94351.50
2023-06-30T15:49:49.881Z,94352.69
2023-06-30T15:52:17.641Z,94349.50
2023-06-30T15:54:45.325Z,94348.91
2023-06-30T15:57:14.299Z,94358.59
2023-06-30T15:59:41.932Z,94346.94
2023-06-30T16:02:09.568Z,94343.97
2023-06-30T16:04:37.257Z,94342.47
2023-06-30T16:07:05.244Z,94343.66
2023-06-30T16:09:32.936Z,94341.13
2023-06-30T16:12:00.605Z,94340.72
2023-06-30T16:14:29.667Z,94345.59
2023-06-30T16:16:57.347Z,94339.91
2023-06-30T16:19:25.017Z,94346.00
2023-06-30T16:21:52.658Z,94335.31
2023-06-30T16:24:20.293Z,94337.09
2023-06-30T16:26:48.018Z,94346.28
2023-06-30T16:29:15.696Z,94338.50
2023-06-30T16:31:44.690Z,94337.97
2023-06-30T16:34:12.445Z,94341.78
2023-06-30T16:36:41.091Z,94339.66
2023-06-30T16:39:09.239Z,94345.66
2023-06-30T16:41:36.893Z,94345.22
2023-06-30T16:44:04.644Z,94347.06
2023-06-30T16:46:32.368Z,94343.13
2023-06-30T16:49:01.340Z,94345.72
2023-06-30T16:51:28.956Z,94344.28
2023-06-30T16:53:56.568Z,94348.97
2023-06-30T16:56:24.231Z,94352.94
2023-06-30T16:58:53.628Z,94358.03
2023-06-30T17:01:23.024Z,94360.06
2023-06-30T17:03:50.746Z,94364.47
2023-06-30T17:06:19.821Z,94364.44
2023-06-30T17:08:47.468Z,94360.72
2023-06-30T17:11:15.095Z,94362.50
2023-06-30T17:13:42.735Z,94369.31
2023-06-30T17:16:10.351Z,94372.59
2023-06-30T17:18:37.987Z,94367.09
2023-06-30T17:21:05.620Z,94364.66
2023-06-30T17:23:34.595Z,94373.00
2023-06-30T17:26:02.230Z,94376.56
2023-06-30T17:28:29.947Z,94381.69
2023-06-30T17:30:57.644Z,94379.19
2023-06-30T17:33:25.350Z,94386.13
2023-06-30T17:35:53.026Z,94392.91
2023-06-30T17:38:20.693Z,94387.03
2023-06-30T17:40:49.671Z,94388.25
2023-06-30T17:43:17.368Z,94388.78
2023-06-30T17:45:45.596Z,94397.97
2023-06-30T17:48:13.842Z,94390.50
2023-06-30T17:50:41.647Z,94395.47
2023-06-30T17:53:09.352Z,94394.38
2023-06-30T17:55:37.071Z,94394.09
2023-06-30T17:58:06.065Z,94395.34
2023-06-30T18:00:33.715Z,94392.78
2023-06-30T18:03:01.370Z,94394.09
2023-06-30T18:05:29.054Z,94397.69
2023-06-30T18:07:56.697Z,94392.66
2023-06-30T18:10:24.543Z,94397.88
2023-06-30T18:12:54.979Z,94389.91
2023-06-30T18:15:24.242Z,94389.09
2023-06-30T18:17:51.919Z,94388.63
2023-06-30T18:20:19.639Z,94392.50
2023-06-30T18:22:47.266Z,94393.63
2023-06-30T18:25:14.969Z,94394.13
2023-06-30T18:27:43.150Z,94399.66
2023-06-30T18:30:11.366Z,94398.19
2023-06-30T18:32:40.396Z,94402.09
2023-06-30T18:35:08.735Z,94406.00
2023-06-30T18:37:36.433Z,94400.47
2023-06-30T18:40:04.615Z,94407.63
2023-06-30T18:42:32.289Z,94407.94
2023-06-30T18:45:00.277Z,94414.25
2023-06-30T18:47:27.967Z,94417.03
2023-06-30T18:49:56.953Z,94424.16
2023-06-30T18:52:24.611Z,94425.09
2023-06-30T18:54:52.284Z,94421.00
2023-06-30T18:57:19.924Z,94420.19
2023-06-30T18:59:49.459Z,94421.19
2023-06-30T19:02:17.208Z,94421.88
2023-06-30T19:04:45.115Z,94429.81
2023-06-30T19:07:14.100Z,94433.69
2023-06-30T19:09:41.749Z,94435.34
2023-06-30T19:12:09.993Z,94441.50
2023-06-30T19:14:37.608Z,94447.66
2023-06-30T19:17:05.470Z,94442.44
2023-06-30T19:19:33.213Z,94448.47
2023-06-30T19:22:01.078Z,94453.19
2023-06-30T19:24:30.098Z,94450.91
2023-06-30T19:26:57.720Z,94460.16
2023-06-30T19:29:25.352Z,94464.88
2023-06-30T19:31:53.048Z,94462.91
2023-06-30T19:34:20.768Z,94462.72
2023-06-30T19:36:48.567Z,94460.47
2023-06-30T19:39:16.209Z,94464.88
2023-06-30T19:41:45.231Z,94471.03
2023-06-30T19:44:12.872Z,94472.16
2023-06-30T19:46:40.568Z,94471.34
2023-06-30T19:49:08.378Z,94473.28
2023-06-30T19:51:35.996Z,94473.59
2023-06-30T19:54:03.687Z,94473.88
2023-06-30T19:56:31.329Z,94477.59
2023-06-30T19:59:00.478Z,94479.00
2023-06-30T20:01:28.132Z,94480.59
2023-06-30T20:03:55.906Z,94478.34
2023-06-30T20:06:23.555Z,94481.28
2023-06-30T20:08:51.307Z,94480.25
2023-06-30T20:11:18.951Z,94480.88
2023-06-30T20:13:48.702Z,94481.72
2023-06-30T20:16:17.766Z,94483.34
2023-06-30T20:18:45.408Z,94488.06
2023-06-30T20:21:13.015Z,94482.34
2023-06-30T20:23:40.642Z,94478.91
2023-06-30T20:26:08.275Z,94483.59
2023-06-30T20:28:36.932Z,94481.97
2023-06-30T20:31:04.676Z,94481.97
2023-06-30T20:33:34.095Z,94475.06
2023-06-30T20:36:01.781Z,94478.25
2023-06-30T20:38:29.409Z,94469.97
2023-06-30T20:40:57.012Z,94476.63
2023-06-30T20:43:24.693Z,94473.19
2023-06-30T20:45:52.318Z,94473.59
2023-06-30T20:48:19.948Z,94480.25
2023-06-30T20:50:49.173Z,94482.78
2023-06-30T20:53:17.193Z,94483.38
2023-06-30T20:55:44.838Z,94489.03
2023-06-30T20:58:12.504Z,94482.50
2023-06-30T21:00:40.349Z,94486.19
2023-06-30T21:03:08.122Z,94483.34
2023-06-30T21:05:35.802Z,94476.31
2023-06-30T21:08:05.085Z,94485.81
2023-06-30T21:10:32.758Z,94478.88
2023-06-30T21:13:00.993Z,94487.44
2023-06-30T21:15:29.145Z,94478.47
2023-06-30T21:17:56.974Z,94480.41
2023-06-30T21:20:24.684Z,94474.88
2023-06-30T21:22:52.328Z,94480.91
2023-06-30T21:25:21.318Z,94482.66
2023-06-30T21:27:48.958Z,94487.38
2023-06-30T21:30:16.657Z,94486.03
2023-06-30T21:32:45.346Z,94490.84
2023-06-30T21:35:13.108Z,94482.38
2023-06-30T21:37:40.749Z,94481.13
2023-06-30T21:40:10.280Z,94480.13
2023-06-30T21:42:39.341Z,94477.03
2023-06-30T21:45:08.188Z,94481.53
2023-06-30T21:47:35.847Z,94478.78
2023-06-30T21:50:03.822Z,94491.56
2023-06-30T21:52:31.466Z,94489.31
2023-06-30T21:54:59.112Z,94488.47
2023-06-30T21:57:26.749Z,94489.09
2023-06-30T21:59:55.710Z,94485.28
2023-06-30T22:02:23.574Z,94481.38
2023-06-30T22:04:51.416Z,94489.91
2023-06-30T22:07:19.538Z,94481.97
2023-06-30T22:09:47.195Z,94482.66
2023-06-30T22:12:14.878Z,94485.91
2023-06-30T22:14:42.521Z,94483.69
2023-06-30T22:17:11.511Z,94486.47
2023-06-30T22:19:39.133Z,94484.47
2023-06-30T22:22:07.730Z,94479.47
2023-06-30T22:24:35.399Z,94480.88
2023-06-30T22:27:03.046Z,94481.38
2023-06-30T22:29:30.698Z,94486.91
2023-06-30T22:31:58.316Z,94486.41
2023-06-30T22:34:27.573Z,94484.97
2023-06-30T22:36:55.269Z,94478.38
2023-06-30T22:39:22.904Z,94484.97
2023-06-30T22:41:50.560Z,94479.28
2023-06-30T22:44:18.174Z,94478.13
2023-06-30T22:46:45.858Z,94480.06
2023-06-30T22:49:13.485Z,94485.59
2023-06-30T22:51:42.494Z,94478.84
2023-06-30T22:54:10.136Z,94487.09
2023-06-30T22:56:38.133Z,94482.13
2023-06-30T22:59:05.740Z,94477.13
2023-06-30T23:01:33.413Z,94484.47
2023-06-30T23:04:01.077Z,94487.22
2023-06-30T23:06:29.117Z,94486.09
2023-06-30T23:08:58.075Z,94481.72
2023-06-30T23:11:25.712Z,94483.94
2023-06-30T23:13:53.396Z,94479.03
2023-06-30T23:16:21.055Z,94473.13
2023-06-30T23:18:48.788Z,94472.91
2023-06-30T23:21:19.046Z,94476.97
2023-06-30T23:23:47.047Z,94481.47
2023-06-30T23:26:16.734Z,94479.44
2023-06-30T23:28:50.163Z,94490.81
2023-06-30T23:31:20.575Z,94479.59
2023-06-30T23:33:51.655Z,94478.75
2023-06-30T23:36:19.715Z,94480.59
2023-06-30T23:38:47.369Z,94487.75
2023-06-30T23:41:16.862Z,94473.78
2023-06-30T23:43:44.547Z,94470.97
2023-06-30T23:46:19.164Z,94468.47
2023-06-30T23:48:47.211Z,94468.66
2023-06-30T23:51:15.003Z,94458.59
2023-06-30T23:53:42.649Z,94465.50
2023-06-30T23:56:10.345Z,94468.78
2023-06-30T23:58:39.506Z,94467.97
